Global Enterprise — 3FCJ6 — position and weather

sailwx.info

Track history (hours):
 
Tides and Currents Weather Stations Pressure Air Temp Water Temp Dewpoint Dewpoint Depression Visibility Wind Speed Wind Dir Waves Ship Positions

Global Enterprise

Last reported at 2016-Sep-25 00:34 UTC. Time now 2016-Sep-30 15:15 UTC.
Position S 02°23' W 044°19'.

Length 290 m; draft 18.1 m.

Type: Ship. MMSI: 356308000.

Date/timePositionNaut miles runAvg speedWind from/ knotsBaromVisibWave heightAir tempDewpointWater temp
2016-Sep-25 00:34S 02°23' W 044°19'12 5.8
2016-Sep-24 22:33S 02°34' W 044°23'0 0.0
2016-Sep-24 21:21S 02°34' W 044°23'0 0.0
2016-Sep-24 19:33S 02°34' W 044°23'0 0.0
2016-Sep-24 18:33S 02°34' W 044°23'0 0.0
2016-Sep-24 17:33S 02°34' W 044°23'0 0.0
2016-Sep-24 16:09S 02°34' W 044°23'0 0.0
2016-Sep-24 14:33S 02°34' W 044°23'0 0.0
2016-Sep-24 12:30S 02°34' W 044°23'0 0.0
2016-Sep-24 10:15S 02°34' W 044°23'0 0.0
2016-Sep-24 09:33S 02°34' W 044°23'0 0.0
2016-Sep-24 03:18S 02°34' W 044°23'0 0.0
2016-Sep-24 02:06S 02°34' W 044°23'12 1.7
2016-Sep-23 19:22S 02°24' W 044°17'0 0.1
2016-Sep-23 17:31S 02°24' W 044°17'0 0.1
2016-Sep-23 16:22S 02°24' W 044°18'0 0.0
2016-Sep-23 15:28S 02°24' W 044°18'0 0.0
2016-Sep-23 13:31S 02°24' W 044°17'19 4.9
2016-Sep-23 09:33S 02°06' W 044°09'  
Track history (hours):
 
Tides and Currents Weather Stations Pressure Air Temp Water Temp Dewpoint Dewpoint Depression Visibility Wind Speed Wind Dir Waves Ship Positions

Global Enterprise

Last reported at 2016-Sep-25 00:34 UTC. Time now 2016-Sep-30 15:15 UTC.
Position S 02°23' W 044°19'.

Length 290 m; draft 18.1 m.

Type: Ship. MMSI: 356308000.

Date/timePositionNaut miles runAvg speedWind from/ knotsBaromVisibWave heightAir tempDewpointWater temp
2016-Sep-25 00:34S 02°23' W 044°19'12 5.8
2016-Sep-24 22:33S 02°34' W 044°23'0 0.0
2016-Sep-24 21:21S 02°34' W 044°23'0 0.0
2016-Sep-24 19:33S 02°34' W 044°23'0 0.0
2016-Sep-24 18:33S 02°34' W 044°23'0 0.0
2016-Sep-24 17:33S 02°34' W 044°23'0 0.0
2016-Sep-24 16:09S 02°34' W 044°23'0 0.0
2016-Sep-24 14:33S 02°34' W 044°23'0 0.0
2016-Sep-24 12:30S 02°34' W 044°23'0 0.0
2016-Sep-24 10:15S 02°34' W 044°23'0 0.0
2016-Sep-24 09:33S 02°34' W 044°23'0 0.0
2016-Sep-24 03:18S 02°34' W 044°23'0 0.0
2016-Sep-24 02:06S 02°34' W 044°23'12 1.7
2016-Sep-23 19:22S 02°24' W 044°17'0 0.1
2016-Sep-23 17:31S 02°24' W 044°17'0 0.1
2016-Sep-23 16:22S 02°24' W 044°18'0 0.0
2016-Sep-23 15:28S 02°24' W 044°18'0 0.0
2016-Sep-23 13:31S 02°24' W 044°17'19 4.9
2016-Sep-23 09:33S 02°06' W 044°09'  

Dump ship's entire track history